createdAt,value
2017-01-29T00:00:50.752Z,65.09
2017-01-29T00:02:01.062Z,65.09
2017-01-29T00:03:10.943Z,65.66
2017-01-29T00:04:20.686Z,65.28
2017-01-29T00:05:30.559Z,65.18
2017-01-29T00:06:40.461Z,65.09
2017-01-29T00:07:49.909Z,65.37
2017-01-29T00:09:00.176Z,65.66
2017-01-29T00:10:10.353Z,65.84
2017-01-29T00:11:20.695Z,65.28
2017-01-29T00:12:31.056Z,65.09
2017-01-29T00:13:41.427Z,65.28
2017-01-29T00:14:51.704Z,65.28
2017-01-29T00:16:02.196Z,65.28
2017-01-29T00:17:11.727Z,65.28
2017-01-29T00:18:22.021Z,65.37
2017-01-29T00:19:32.318Z,65.37
2017-01-29T00:20:42.170Z,65.28
2017-01-29T00:21:52.319Z,65.37
2017-01-29T00:23:02.686Z,65.94
2017-01-29T00:24:12.581Z,65.94
2017-01-29T00:25:22.864Z,65.56
2017-01-29T00:26:33.121Z,65.66
2017-01-29T00:27:43.621Z,65.66
2017-01-29T00:28:53.530Z,66.31
2017-01-29T00:30:03.940Z,66.03
2017-01-29T00:31:13.798Z,66.22
2017-01-29T00:32:24.194Z,66.13
2017-01-29T00:33:34.772Z,66.13
2017-01-29T00:34:45.113Z,66.69
2017-01-29T00:35:55.003Z,66.69
2017-01-29T00:37:05.286Z,66.79
2017-01-29T00:38:15.210Z,66.79
2017-01-29T00:39:25.339Z,66.41
2017-01-29T00:40:35.194Z,66.41
2017-01-29T00:41:45.468Z,66.6
2017-01-29T00:42:55.893Z,66.79
2017-01-29T00:44:06.184Z,66.31
2017-01-29T00:45:16.743Z,66.5
2017-01-29T00:46:27.007Z,66.88
2017-01-29T00:47:37.340Z,67.07
2017-01-29T00:48:47.599Z,66.69
2017-01-29T00:49:57.463Z,66.88
2017-01-29T00:51:07.592Z,66.98
2017-01-29T00:52:17.851Z,67.26
2017-01-29T00:53:28.273Z,66.98
2017-01-29T00:54:38.202Z,66.69
2017-01-29T00:55:48.062Z,66.88
2017-01-29T00:56:58.380Z,66.79
2017-01-29T00:58:08.270Z,66.98
2017-01-29T00:59:18.546Z,66.88
2017-01-29T01:00:28.809Z,67.26
2017-01-29T01:01:39.141Z,67.36
2017-01-29T01:02:49.778Z,66.98
2017-01-29T01:03:59.639Z,67.36
2017-01-29T01:05:09.498Z,67.36
2017-01-29T01:06:19.264Z,67.17
2017-01-29T01:07:29.557Z,67.55
2017-01-29T01:08:39.663Z,67.55
2017-01-29T01:09:49.909Z,67.55
2017-01-29T01:11:00.259Z,67.36
2017-01-29T01:12:10.602Z,67.26
2017-01-29T01:13:20.492Z,67.17
2017-01-29T01:14:30.612Z,67.64
2017-01-29T01:16:12.605Z,67.83
2017-01-29T01:17:22.852Z,67.26
2017-01-29T01:18:32.715Z,67.64
2017-01-29T01:19:42.951Z,67.26
2017-01-29T01:20:53.219Z,67.36
2017-01-29T01:22:03.517Z,67.26
2017-01-29T01:23:13.830Z,67.36
2017-01-29T01:24:24.189Z,67.45
2017-01-29T01:25:34.293Z,67.17
2017-01-29T01:26:44.218Z,67.55
2017-01-29T01:27:54.489Z,67.55
2017-01-29T01:29:04.352Z,67.45
2017-01-29T01:30:14.609Z,67.45
2017-01-29T01:31:25.118Z,67.07
2017-01-29T01:32:35.426Z,67.45
2017-01-29T01:33:45.802Z,67.17
2017-01-29T01:34:56.058Z,67.17
2017-01-29T01:36:06.014Z,67.36
2017-01-29T01:37:16.574Z,67.26
2017-01-29T01:38:26.425Z,67.07
2017-01-29T01:39:36.300Z,67.17
2017-01-29T01:40:46.659Z,67.17
2017-01-29T01:41:56.917Z,66.98
2017-01-29T01:43:07.183Z,67.36
2017-01-29T01:44:17.532Z,67.26
2017-01-29T01:45:27.409Z,67.26
2017-01-29T01:46:37.255Z,67.36
2017-01-29T01:47:47.552Z,67.26
2017-01-29T01:48:57.340Z,67.17
2017-01-29T01:50:07.601Z,67.26
2017-01-29T01:51:17.906Z,67.36
2017-01-29T01:52:27.776Z,67.36
2017-01-29T01:53:37.684Z,67.36
2017-01-29T01:54:48.311Z,67.26
2017-01-29T01:55:58.662Z,67.36
2017-01-29T01:57:08.214Z,67.36
2017-01-29T01:58:18.517Z,67.17
2017-01-29T01:59:28.421Z,67.26
2017-01-29T02:00:38.990Z,67.36
2017-01-29T02:01:48.908Z,67.26
2017-01-29T02:02:59.478Z,67.17
2017-01-29T02:04:09.778Z,67.64
2017-01-29T02:05:19.619Z,67.93
2017-01-29T02:06:29.323Z,67.07
2017-01-29T02:07:39.193Z,67.55
2017-01-29T02:09:20.378Z,67.36
2017-01-29T02:10:30.658Z,67.26
2017-01-29T02:11:41.165Z,67.55
2017-01-29T02:12:51.434Z,67.64
2017-01-29T02:14:01.704Z,68.02
2017-01-29T02:15:12.037Z,67.45
2017-01-29T02:16:21.551Z,67.64
2017-01-29T02:17:31.696Z,68.02
2017-01-29T02:18:41.953Z,67.93
2017-01-29T02:19:52.204Z,68.12
2017-01-29T02:21:02.066Z,68.02
2017-01-29T02:22:11.520Z,68.4
2017-01-29T02:23:22.170Z,68.49
2017-01-29T02:24:32.265Z,68.49
2017-01-29T02:25:42.644Z,68.3
2017-01-29T02:26:52.540Z,68.96
2017-01-29T02:28:02.800Z,68.68
2017-01-29T02:29:13.002Z,68.96
2017-01-29T02:30:22.875Z,68.4
2017-01-29T02:31:33.136Z,68.3
2017-01-29T02:32:43.382Z,68.3
2017-01-29T02:33:53.683Z,68.59
2017-01-29T02:35:04.233Z,68.49
2017-01-29T02:36:14.113Z,68.49
2017-01-29T02:37:23.981Z,68.4
2017-01-29T02:38:33.949Z,68.12
2017-01-29T02:39:43.917Z,68.49
2017-01-29T02:40:53.628Z,68.59
2017-01-29T02:42:03.886Z,68.96
2017-01-29T02:43:13.768Z,68.96
2017-01-29T02:44:23.240Z,68.59
2017-01-29T02:45:33.599Z,68.96
2017-01-29T02:46:44.130Z,68.77
2017-01-29T02:47:54.380Z,68.77
2017-01-29T02:49:04.278Z,68.77
2017-01-29T02:50:14.577Z,68.68
2017-01-29T02:51:24.447Z,68.59
2017-01-29T02:52:34.583Z,68.49
2017-01-29T02:53:44.424Z,68.68
2017-01-29T02:54:53.907Z,68.68
2017-01-29T02:56:04.201Z,68.68
2017-01-29T02:57:14.522Z,68.4
2017-01-29T02:58:25.155Z,68.68
2017-01-29T02:59:35.490Z,68.4
2017-01-29T03:00:45.347Z,68.59
2017-01-29T03:01:54.799Z,68.59
2017-01-29T03:03:05.075Z,68.59
2017-01-29T03:04:15.185Z,68.68
2017-01-29T03:05:25.425Z,69.06
2017-01-29T03:06:35.669Z,69.06
2017-01-29T03:07:45.808Z,69.06
2017-01-29T03:08:56.086Z,68.87
2017-01-29T03:10:06.585Z,69.25
2017-01-29T03:11:16.933Z,69.15
2017-01-29T03:12:27.289Z,69.06
2017-01-29T03:13:37.574Z,69.34
2017-01-29T03:14:47.489Z,69.34
2017-01-29T03:15:57.625Z,69.44
2017-01-29T03:17:07.962Z,69.44
2017-01-29T03:18:17.397Z,69.53
2017-01-29T03:19:27.246Z,69.34
2017-01-29T03:20:37.127Z,69.25
2017-01-29T03:21:46.815Z,69.72
2017-01-29T03:22:57.088Z,69.53
2017-01-29T03:24:06.928Z,69.78
2017-01-29T03:25:16.799Z,69.68
2017-01-29T03:26:27.166Z,70.16
2017-01-29T03:27:37.724Z,70.25
2017-01-29T03:28:48.082Z,70.44
2017-01-29T03:29:57.953Z,70.39
2017-01-29T03:31:08.222Z,70.54
2017-01-29T03:32:18.347Z,70.48
2017-01-29T03:33:28.869Z,70.39
2017-01-29T03:34:39.096Z,70.29
2017-01-29T03:35:49.428Z,70.39
2017-01-29T03:36:59.347Z,70.48
2017-01-29T03:38:09.685Z,70.57
2017-01-29T03:39:20.196Z,70.39
2017-01-29T03:40:30.543Z,70.25
2017-01-29T03:41:40.879Z,70.35
2017-01-29T03:42:51.196Z,70.44
2017-01-29T03:44:01.184Z,70.25
2017-01-29T03:45:11.673Z,70.35
2017-01-29T03:46:21.119Z,70.57
2017-01-29T03:47:31.499Z,70.54
2017-01-29T03:48:41.388Z,70.44
2017-01-29T03:49:51.281Z,70.29
2017-01-29T03:51:01.452Z,70.39
2017-01-29T03:52:11.796Z,70.48
2017-01-29T03:53:22.068Z,70.48
2017-01-29T03:54:32.308Z,70.48
2017-01-29T03:55:42.178Z,70.29
2017-01-29T03:56:52.720Z,70.48
2017-01-29T03:58:03.117Z,70.86
2017-01-29T03:59:13.358Z,70.76
2017-01-29T04:00:23.204Z,70.86
2017-01-29T04:01:32.677Z,70.95
2017-01-29T04:02:42.767Z,70.76
2017-01-29T04:03:53.095Z,70.67
2017-01-29T04:05:02.975Z,70.67
2017-01-29T04:06:13.244Z,70.48
2017-01-29T04:07:23.550Z,70.57
2017-01-29T04:08:33.234Z,71.04
2017-01-29T04:09:43.100Z,70.48
2017-01-29T04:10:52.973Z,71.04
2017-01-29T04:12:02.844Z,70.76
2017-01-29T04:13:13.094Z,70.86
2017-01-29T04:14:23.302Z,70.57
2017-01-29T04:15:33.153Z,71.14
2017-01-29T04:16:43.443Z,71.23
2017-01-29T04:17:53.702Z,70.39
2017-01-29T04:19:04.023Z,71.04
2017-01-29T04:20:14.657Z,70.95
2017-01-29T04:21:24.909Z,70.67
2017-01-29T04:22:34.792Z,70.86
2017-01-29T04:23:44.637Z,70.76
2017-01-29T04:24:54.918Z,71.23
2017-01-29T04:26:05.465Z,70.76
2017-01-29T04:27:15.707Z,71.04
2017-01-29T04:28:24.786Z,71.04
2017-01-29T04:29:35.040Z,70.67
2017-01-29T04:30:45.298Z,70.76
2017-01-29T04:31:55.393Z,70.76
2017-01-29T04:33:04.434Z,70.95
2017-01-29T04:34:14.773Z,70.76
2017-01-29T04:35:25.227Z,71.04
2017-01-29T04:36:35.077Z,70.95
2017-01-29T04:37:45.779Z,70.95
2017-01-29T04:38:56.006Z,71.04
2017-01-29T04:40:06.299Z,70.95
2017-01-29T04:41:16.563Z,71.04
2017-01-29T04:42:26.874Z,71.42
2017-01-29T04:43:37.445Z,70.95
2017-01-29T04:44:47.692Z,71.04
2017-01-29T04:45:57.952Z,70.95
2017-01-29T04:47:07.000Z,71.14
2017-01-29T04:48:16.848Z,71.52
2017-01-29T04:49:26.950Z,71.33
2017-01-29T04:50:36.454Z,71.33
2017-01-29T04:51:46.710Z,71.42
2017-01-29T04:52:56.958Z,71.04
2017-01-29T04:54:07.208Z,71.14
2017-01-29T04:55:17.395Z,71.04
2017-01-29T04:56:27.741Z,70.95
2017-01-29T04:57:37.760Z,70.95
2017-01-29T04:58:47.601Z,71.14
2017-01-29T04:59:57.914Z,71.04
2017-01-29T05:01:08.009Z,70.76
2017-01-29T05:02:17.970Z,71.52
2017-01-29T05:03:28.318Z,71.23
2017-01-29T05:04:38.576Z,71.23
2017-01-29T05:05:48.465Z,71.33
2017-01-29T05:06:58.569Z,71.33
2017-01-29T05:08:08.825Z,71.23
2017-01-29T05:09:19.134Z,71.9
2017-01-29T05:10:29.430Z,71.52
2017-01-29T05:11:39.324Z,71.8
2017-01-29T05:12:49.019Z,72.28
2017-01-29T05:13:59.280Z,72.37
2017-01-29T05:15:09.133Z,72.47
2017-01-29T05:16:18.996Z,72.47
2017-01-29T05:17:29.259Z,72.37
2017-01-29T05:18:39.872Z,72.28
2017-01-29T05:19:50.211Z,72.28
2017-01-29T05:21:00.146Z,72.47
2017-01-29T05:22:10.422Z,72.66
2017-01-29T05:23:20.724Z,72.85
2017-01-29T05:24:30.819Z,72.47
2017-01-29T05:25:40.712Z,72.66
2017-01-29T05:26:50.163Z,72.85
2017-01-29T05:28:00.055Z,72.75
2017-01-29T05:29:10.311Z,72.75
2017-01-29T05:30:20.815Z,72.56
2017-01-29T05:31:30.257Z,72.56
2017-01-29T05:32:40.107Z,72.37
2017-01-29T05:33:49.988Z,72.37
2017-01-29T05:34:59.825Z,72.47
2017-01-29T05:36:09.921Z,72.75
2017-01-29T05:37:19.796Z,72.66
2017-01-29T05:38:30.111Z,72.75
2017-01-29T05:39:40.007Z,72.94
2017-01-29T05:40:50.260Z,72.75
2017-01-29T05:42:00.856Z,72.56
2017-01-29T05:43:11.097Z,73.03
2017-01-29T05:44:21.106Z,72.66
2017-01-29T05:45:31.405Z,72.94
2017-01-29T05:46:41.669Z,72.56
2017-01-29T05:47:51.814Z,72.66
2017-01-29T05:49:02.188Z,72.66
2017-01-29T05:50:11.626Z,72.85
2017-01-29T05:51:21.880Z,72.85
2017-01-29T05:52:31.745Z,72.75
2017-01-29T05:53:42.038Z,72.94
2017-01-29T05:54:51.922Z,73.03
2017-01-29T05:56:01.874Z,72.75
2017-01-29T05:57:11.821Z,72.66
2017-01-29T05:58:21.691Z,72.75
2017-01-29T05:59:31.828Z,72.75
2017-01-29T06:00:41.740Z,73.03
2017-01-29T06:01:52.131Z,72.94
2017-01-29T06:03:02.441Z,72.94
2017-01-29T06:04:12.685Z,73.03
2017-01-29T06:05:23.221Z,73.22
2017-01-29T06:06:33.475Z,73.22
2017-01-29T06:07:43.744Z,73.41
2017-01-29T06:08:54.173Z,72.94
2017-01-29T06:10:03.728Z,73.13
2017-01-29T06:11:13.874Z,72.66
2017-01-29T06:12:23.710Z,72.66
2017-01-29T06:13:33.551Z,72.75
2017-01-29T06:14:43.797Z,72.56
2017-01-29T06:15:53.793Z,72.75
2017-01-29T06:17:04.386Z,72.85
2017-01-29T06:18:14.763Z,72.75
2017-01-29T06:19:25.085Z,72.85
2017-01-29T06:20:35.445Z,72.85
2017-01-29T06:21:45.707Z,72.37
2017-01-29T06:22:56.246Z,72.56
2017-01-29T06:24:06.676Z,72.56
2017-01-29T06:25:16.516Z,72.47
2017-01-29T06:26:26.781Z,72.56
2017-01-29T06:27:37.031Z,72.47
2017-01-29T06:28:47.577Z,72.66
2017-01-29T06:29:57.464Z,72.18
2017-01-29T06:31:07.785Z,72.28
2017-01-29T06:32:18.182Z,72.5
2017-01-29T06:33:28.479Z,72.31
2017-01-29T06:34:39.044Z,71.93
2017-01-29T06:35:49.363Z,71.74
2017-01-29T06:36:59.631Z,71.84
2017-01-29T06:38:09.922Z,71.93
2017-01-29T06:39:20.176Z,71.74
2017-01-29T06:40:30.703Z,71.74
2017-01-29T06:41:41.006Z,71.65
2017-01-29T06:42:51.354Z,71.84
2017-01-29T06:44:01.259Z,71.36
2017-01-29T06:45:11.545Z,71.36
2017-01-29T06:46:22.087Z,71.36
2017-01-29T06:47:32.340Z,71.27
2017-01-29T06:48:42.649Z,71.55
2017-01-29T06:49:52.488Z,71.17
2017-01-29T06:51:02.781Z,71.08
2017-01-29T06:52:13.004Z,70.89
2017-01-29T06:53:23.251Z,71.08
2017-01-29T06:54:32.738Z,70.98
2017-01-29T06:55:42.587Z,70.7
2017-01-29T06:56:52.850Z,70.98
2017-01-29T06:58:03.343Z,71.17
2017-01-29T06:59:13.674Z,70.42
2017-01-29T07:00:24.329Z,70.61
2017-01-29T07:01:34.271Z,70.32
2017-01-29T07:02:44.575Z,70.32
2017-01-29T07:03:54.466Z,70.32
2017-01-29T07:05:04.863Z,70.23
2017-01-29T07:06:15.138Z,70.32
2017-01-29T07:07:25.459Z,70.14
2017-01-29T07:08:35.321Z,70.32
2017-01-29T07:09:45.409Z,70.51
2017-01-29T07:10:55.270Z,70.32
2017-01-29T07:12:05.691Z,70.32
2017-01-29T07:13:16.035Z,70.32
2017-01-29T07:14:26.377Z,70.51
2017-01-29T07:15:37.035Z,70.42
2017-01-29T07:16:47.274Z,70.42
2017-01-29T07:17:57.271Z,70.32
2017-01-29T07:19:07.170Z,70.42
2017-01-29T07:20:17.415Z,70.32
2017-01-29T07:21:27.491Z,70.32
2017-01-29T07:22:37.732Z,70.51
2017-01-29T07:23:47.996Z,70.42
2017-01-29T07:24:57.945Z,70.42
2017-01-29T07:26:08.184Z,69.85
2017-01-29T07:27:18.786Z,70.36
2017-01-29T07:28:29.105Z,70.26
2017-01-29T07:29:39.052Z,69.98
2017-01-29T07:30:49.315Z,69.98
2017-01-29T07:31:59.173Z,70.07
2017-01-29T07:33:09.303Z,69.32
2017-01-29T07:34:19.604Z,69.7
2017-01-29T07:35:29.451Z,69.6
2017-01-29T07:36:39.644Z,69.41
2017-01-29T07:37:49.969Z,69.41
2017-01-29T07:38:59.767Z,69.41
2017-01-29T07:40:09.687Z,69.13
2017-01-29T07:41:19.944Z,69.03
2017-01-29T07:42:30.210Z,69.13
2017-01-29T07:43:40.129Z,69.13
2017-01-29T07:44:50.867Z,68.56
2017-01-29T07:46:01.110Z,68.94
2017-01-29T07:47:10.959Z,68.75
2017-01-29T07:48:21.261Z,68.84
2017-01-29T07:49:30.867Z,68.84
2017-01-29T07:50:41.446Z,68.65
2017-01-29T07:51:51.301Z,68.65
2017-01-29T07:53:01.293Z,68.46
2017-01-29T07:54:11.745Z,68.65
2017-01-29T07:55:22.004Z,68.56
2017-01-29T07:56:32.516Z,68.37
2017-01-29T07:57:42.036Z,68.18
2017-01-29T07:58:52.368Z,67.9
2017-01-29T08:00:02.649Z,68.18
2017-01-29T08:01:12.936Z,67.99
2017-01-29T08:02:23.621Z,68.27
2017-01-29T08:03:33.881Z,67.9
2017-01-29T08:04:43.804Z,67.99
2017-01-29T08:05:54.107Z,67.99
2017-01-29T08:07:03.972Z,67.9
2017-01-29T08:08:14.122Z,67.99
2017-01-29T08:09:24.393Z,67.99
2017-01-29T08:10:33.445Z,68.08
2017-01-29T08:11:43.289Z,67.99
2017-01-29T08:12:53.610Z,68.27
2017-01-29T08:14:04.198Z,67.9
2017-01-29T08:15:14.107Z,67.99
2017-01-29T08:16:24.396Z,67.99
2017-01-29T08:17:34.661Z,67.9
2017-01-29T08:18:44.549Z,67.9
2017-01-29T08:19:54.648Z,68.08
2017-01-29T08:21:04.962Z,67.99
2017-01-29T08:22:15.222Z,68.08
2017-01-29T08:23:25.111Z,68.18
2017-01-29T08:24:34.992Z,68.08
2017-01-29T08:25:45.547Z,67.99
2017-01-29T08:26:55.933Z,67.8
2017-01-29T08:28:05.401Z,67.99
2017-01-29T08:29:15.652Z,67.71
2017-01-29T08:30:25.947Z,67.8
2017-01-29T08:31:36.632Z,67.71
2017-01-29T08:32:46.912Z,67.9
2017-01-29T08:33:56.356Z,67.99
2017-01-29T08:35:06.807Z,67.8
2017-01-29T08:36:17.125Z,68.08
2017-01-29T08:37:27.250Z,67.99
2017-01-29T08:38:37.126Z,68.27
2017-01-29T08:39:46.678Z,68.08
2017-01-29T08:40:56.933Z,68.08
2017-01-29T08:42:07.295Z,67.99
2017-01-29T08:43:17.922Z,68.08
2017-01-29T08:44:28.285Z,68.08
2017-01-29T08:45:38.672Z,67.9
2017-01-29T08:46:48.618Z,67.8
2017-01-29T08:47:58.900Z,67.9
2017-01-29T08:49:08.272Z,67.8
2017-01-29T08:50:18.639Z,67.71
2017-01-29T08:51:28.909Z,67.8
2017-01-29T08:52:39.243Z,67.8
2017-01-29T08:53:49.523Z,67.55
2017-01-29T08:54:59.655Z,67.52
2017-01-29T08:56:09.510Z,67.9
2017-01-29T08:57:19.916Z,67.61
2017-01-29T08:58:30.178Z,67.52
2017-01-29T08:59:40.501Z,67.61
2017-01-29T09:00:51.133Z,67.71
2017-01-29T09:02:01.443Z,67.55
2017-01-29T09:03:11.748Z,67.65
2017-01-29T09:04:22.069Z,67.55
2017-01-29T09:05:32.421Z,67.36
2017-01-29T09:06:42.559Z,67.46
2017-01-29T09:07:52.425Z,67.93
2017-01-29T09:09:01.903Z,67.36
2017-01-29T09:10:11.779Z,67.46
2017-01-29T09:11:22.083Z,67.36
2017-01-29T09:12:31.793Z,67.65
2017-01-29T09:13:42.180Z,67.65
2017-01-29T09:14:52.493Z,67.83
2017-01-29T09:16:02.473Z,67.55
2017-01-29T09:17:12.946Z,67.36
2017-01-29T09:18:23.480Z,67.55
2017-01-29T09:19:33.774Z,67.46
2017-01-29T09:20:44.068Z,67.65
2017-01-29T09:21:54.466Z,67.08
2017-01-29T09:23:04.817Z,67.65
2017-01-29T09:24:15.047Z,67.36
2017-01-29T09:25:25.302Z,67.27
2017-01-29T09:26:35.603Z,67.55
2017-01-29T09:27:45.916Z,67.46
2017-01-29T09:28:55.819Z,67.65
2017-01-29T09:30:06.358Z,67.65
2017-01-29T09:31:16.646Z,67.46
2017-01-29T09:32:26.955Z,67.27
2017-01-29T09:33:37.289Z,67.46
2017-01-29T09:34:47.184Z,67.46
2017-01-29T09:35:57.775Z,67.36
2017-01-29T09:37:08.035Z,67.27
2017-01-29T09:38:18.350Z,67.27
2017-01-29T09:39:28.757Z,67.27
2017-01-29T09:40:39.069Z,67.36
2017-01-29T09:41:49.681Z,66.89
2017-01-29T09:42:59.157Z,66.7
2017-01-29T09:44:09.575Z,66.64
2017-01-29T09:45:19.945Z,66.83
2017-01-29T09:46:29.783Z,66.64
2017-01-29T09:47:39.884Z,67.02
2017-01-29T09:48:49.803Z,66.54
2017-01-29T09:49:59.298Z,66.16
2017-01-29T09:51:09.227Z,66.26
2017-01-29T09:52:19.195Z,66.07
2017-01-29T09:53:29.440Z,66.35
2017-01-29T09:54:39.723Z,66.45
2017-01-29T09:55:49.987Z,66.26
2017-01-29T09:57:00.379Z,66.26
2017-01-29T09:58:09.850Z,66.16
2017-01-29T09:59:20.385Z,66.35
2017-01-29T10:00:30.315Z,66.35
2017-01-29T10:01:40.639Z,65.88
2017-01-29T10:02:50.503Z,65.78
2017-01-29T10:04:00.457Z,65.78
2017-01-29T10:05:10.980Z,65.78
2017-01-29T10:06:21.288Z,65.78
2017-01-29T10:07:31.649Z,65.69
2017-01-29T10:08:41.514Z,65.69
2017-01-29T10:09:51.395Z,65.88
2017-01-29T10:11:01.943Z,65.69
2017-01-29T10:12:11.888Z,65.41
2017-01-29T10:13:21.785Z,65.59
2017-01-29T10:14:32.085Z,65.41
2017-01-29T10:15:42.397Z,65.31
2017-01-29T10:16:52.568Z,65.41
2017-01-29T10:18:02.850Z,65.88
2017-01-29T10:19:13.361Z,65.88
2017-01-29T10:20:22.909Z,65.41
2017-01-29T10:21:33.282Z,65.41
2017-01-29T10:22:43.511Z,65.78
2017-01-29T10:23:53.818Z,65.59
2017-01-29T10:25:03.798Z,65.78
2017-01-29T10:26:13.780Z,65.59
2017-01-29T10:27:24.436Z,65.41
2017-01-29T10:28:35.149Z,65.82
2017-01-29T10:29:45.508Z,65.63
2017-01-29T10:30:55.831Z,65.82
2017-01-29T10:32:05.997Z,65.82
2017-01-29T10:33:16.339Z,65.82
2017-01-29T10:34:26.052Z,65.63
2017-01-29T10:35:35.927Z,65.53
2017-01-29T10:36:46.232Z,65.44
2017-01-29T10:37:56.521Z,65.44
2017-01-29T10:39:06.937Z,65.72
2017-01-29T10:40:16.822Z,65.34
2017-01-29T10:41:27.161Z,65.53
2017-01-29T10:42:37.524Z,65.25
2017-01-29T10:43:47.841Z,65.82
2017-01-29T10:44:57.812Z,65.82
2017-01-29T10:46:08.409Z,65.72
2017-01-29T10:47:18.320Z,65.34
2017-01-29T10:48:28.706Z,65.82
2017-01-29T10:49:38.711Z,65.44
2017-01-29T10:50:48.987Z,65.91
2017-01-29T10:51:58.731Z,65.53
2017-01-29T10:53:08.766Z,65.63
2017-01-29T10:54:18.269Z,65.91
2017-01-29T10:55:28.789Z,65.44
2017-01-29T10:56:39.051Z,65.44
2017-01-29T10:57:49.301Z,65.44
2017-01-29T10:58:59.581Z,65.34
2017-01-29T11:00:09.897Z,65.34
2017-01-29T11:01:20.219Z,65.34
2017-01-29T11:02:30.552Z,64.87
2017-01-29T11:03:40.771Z,64.87
2017-01-29T11:04:50.727Z,64.97
2017-01-29T11:06:00.691Z,65.25
2017-01-29T11:07:10.549Z,64.87
2017-01-29T11:08:20.873Z,64.68
2017-01-29T11:09:30.583Z,64.78
2017-01-29T11:10:40.862Z,64.43
2017-01-29T11:11:51.241Z,65
2017-01-29T11:13:01.624Z,64.24
2017-01-29T11:14:11.991Z,63.95
2017-01-29T11:15:22.139Z,64.05
2017-01-29T11:16:32.455Z,64.24
2017-01-29T11:17:42.383Z,64.05
2017-01-29T11:18:52.263Z,64.14
2017-01-29T11:20:02.539Z,63.95
2017-01-29T11:21:13.182Z,63.57
2017-01-29T11:22:23.550Z,63.57
2017-01-29T11:23:33.995Z,63.86
2017-01-29T11:24:44.309Z,63.67
2017-01-29T11:25:54.589Z,63.57
2017-01-29T11:27:05.216Z,63.48
2017-01-29T11:28:14.697Z,63.76
2017-01-29T11:29:24.572Z,63.2
2017-01-29T11:30:34.930Z,63.29
2017-01-29T11:31:45.252Z,63.48
2017-01-29T11:32:55.387Z,63.29
2017-01-29T11:34:05.680Z,63.57
2017-01-29T11:35:16.042Z,63.1
2017-01-29T11:36:26.391Z,63.39
2017-01-29T11:37:36.686Z,63.39
2017-01-29T11:38:46.789Z,63.51
2017-01-29T11:39:57.047Z,63.23
2017-01-29T11:41:07.474Z,62.56
2017-01-29T11:42:17.826Z,62.66
2017-01-29T11:43:28.162Z,62.85
2017-01-29T11:44:38.813Z,62.46
2017-01-29T11:45:49.085Z,62.46
2017-01-29T11:46:59.479Z,62.66
2017-01-29T11:48:09.739Z,62.18
2017-01-29T11:49:19.729Z,61.71
2017-01-29T11:50:29.965Z,62.27
2017-01-29T11:51:40.116Z,62.18
2017-01-29T11:52:50.739Z,61.99
2017-01-29T11:54:01.010Z,61.8
2017-01-29T11:55:10.896Z,61.99
2017-01-29T11:56:21.282Z,61.71
2017-01-29T11:57:31.809Z,62.18
2017-01-29T11:58:41.659Z,62.27
2017-01-29T11:59:51.582Z,62.27
2017-01-29T12:01:01.941Z,62.27
2017-01-29T12:02:11.500Z,62.37
2017-01-29T12:03:21.910Z,61.99
2017-01-29T12:04:32.531Z,61.99
2017-01-29T12:05:42.846Z,61.71
2017-01-29T12:06:53.154Z,62.37
2017-01-29T12:08:03.587Z,62.27
2017-01-29T12:09:13.949Z,62.08
2017-01-29T12:10:24.572Z,62.08
2017-01-29T12:11:34.860Z,62.18
2017-01-29T12:12:45.148Z,62.37
2017-01-29T12:13:54.666Z,62.27
2017-01-29T12:15:05.006Z,62.46
2017-01-29T12:16:15.204Z,62.37
2017-01-29T12:17:25.647Z,62.18
2017-01-29T12:18:36.018Z,62.27
2017-01-29T12:19:45.993Z,62.37
2017-01-29T12:20:55.987Z,62.37
2017-01-29T12:22:06.150Z,62.46
2017-01-29T12:23:16.020Z,61.99
2017-01-29T12:24:25.991Z,61.99
2017-01-29T12:25:36.354Z,61.71
2017-01-29T12:26:46.667Z,61.8
2017-01-29T12:27:57.214Z,61.9
2017-01-29T12:29:07.617Z,62.27
2017-01-29T12:30:17.995Z,62.27
2017-01-29T12:31:28.418Z,61.99
2017-01-29T12:32:37.919Z,61.99
2017-01-29T12:33:48.537Z,61.8
2017-01-29T12:34:58.899Z,62.08
2017-01-29T12:36:09.173Z,62.18
2017-01-29T12:37:19.817Z,61.8
2017-01-29T12:38:29.301Z,61.71
2017-01-29T12:39:39.898Z,61.83
2017-01-29T12:40:50.343Z,61.9
2017-01-29T12:42:00.887Z,62.12
2017-01-29T12:43:11.240Z,62.4
2017-01-29T12:44:21.164Z,61.99
2017-01-29T12:45:31.812Z,61.83
2017-01-29T12:46:42.223Z,62.02
2017-01-29T12:47:52.619Z,62.12
2017-01-29T12:49:02.139Z,62.5
2017-01-29T12:50:12.447Z,62.31
2017-01-29T12:51:22.995Z,62.21
2017-01-29T12:52:33.356Z,62.12
2017-01-29T12:53:42.877Z,62.12
2017-01-29T12:54:52.881Z,62.88
2017-01-29T12:56:03.224Z,62.69
2017-01-29T12:57:13.841Z,62.78
2017-01-29T12:58:24.169Z,62.78
2017-01-29T12:59:34.119Z,62.78
2017-01-29T13:00:44.041Z,63.35
2017-01-29T13:01:54.328Z,63.45
2017-01-29T13:03:05.011Z,63.17
2017-01-29T13:04:15.298Z,63.45
2017-01-29T13:05:25.663Z,63.35
2017-01-29T13:06:36.082Z,63.45
2017-01-29T13:07:45.682Z,63.54
2017-01-29T13:08:56.280Z,63.83
2017-01-29T13:10:06.151Z,63.64
2017-01-29T13:11:16.502Z,63.73
2017-01-29T13:12:26.439Z,64.02
2017-01-29T13:13:36.362Z,64.02
2017-01-29T13:14:46.942Z,64.11
2017-01-29T13:16:00.119Z,63.54
2017-01-29T13:17:10.447Z,63.73
2017-01-29T13:18:20.763Z,64.11
2017-01-29T13:19:30.699Z,64.11
2017-01-29T13:20:40.915Z,64.21
2017-01-29T13:21:51.303Z,64.21
2017-01-29T13:23:01.624Z,64.65
2017-01-29T13:24:11.989Z,64.56
2017-01-29T13:25:22.293Z,64.46
2017-01-29T13:26:32.442Z,64.56
2017-01-29T13:27:42.827Z,64.4
2017-01-29T13:28:53.164Z,64.59
2017-01-29T13:30:03.605Z,65.06
2017-01-29T13:31:13.502Z,64.78
2017-01-29T13:32:23.682Z,64.78
2017-01-29T13:33:33.951Z,64.49
2017-01-29T13:34:43.927Z,64.49
2017-01-29T13:35:54.221Z,64.78
2017-01-29T13:37:04.140Z,64.78
2017-01-29T13:38:14.763Z,64.69
2017-01-29T13:39:24.803Z,64.69
2017-01-29T13:40:34.729Z,64.78
2017-01-29T13:41:44.493Z,64.97
2017-01-29T13:42:54.847Z,64.97
2017-01-29T13:44:05.172Z,64.4
2017-01-29T13:45:14.686Z,64.97
2017-01-29T13:46:24.584Z,65.16
2017-01-29T13:47:35.316Z,64.97
2017-01-29T13:48:45.611Z,65.06
2017-01-29T13:49:56.003Z,64.97
2017-01-29T13:51:06.646Z,65.06
2017-01-29T13:52:16.542Z,64.87
2017-01-29T13:53:26.458Z,64.97
2017-01-29T13:54:36.766Z,64.59
2017-01-29T13:55:47.104Z,64.78
2017-01-29T13:56:57.981Z,64.78
2017-01-29T13:58:08.348Z,64.49
2017-01-29T13:59:18.400Z,64.59
2017-01-29T14:00:28.706Z,64.59
2017-01-29T14:01:39.043Z,64.59
2017-01-29T14:02:49.686Z,64.59
2017-01-29T14:03:59.636Z,64.49
2017-01-29T14:05:09.955Z,64.78
2017-01-29T14:06:19.949Z,64.59
2017-01-29T14:07:29.869Z,64.69
2017-01-29T14:08:40.439Z,64.87
2017-01-29T14:09:50.859Z,64.69
2017-01-29T14:11:00.318Z,64.49
2017-01-29T14:12:10.247Z,64.97
2017-01-29T14:13:20.157Z,64.97
2017-01-29T14:14:30.724Z,65.25
2017-01-29T14:15:41.054Z,64.87
2017-01-29T14:16:50.566Z,65.54
2017-01-29T14:18:00.958Z,65.35
2017-01-29T14:19:11.285Z,65.73
2017-01-29T14:20:21.118Z,65.54
2017-01-29T14:21:31.021Z,65.82
2017-01-29T14:22:41.084Z,65.6
2017-01-29T14:23:51.029Z,65.5
2017-01-29T14:25:00.980Z,65.88
2017-01-29T14:26:11.121Z,66.08
2017-01-29T14:27:21.441Z,66.08
2017-01-29T14:28:31.861Z,66.36
2017-01-29T14:29:42.340Z,66.17
2017-01-29T14:30:52.658Z,66.55
2017-01-29T14:32:03.228Z,66.46
2017-01-29T14:33:13.551Z,66.55
2017-01-29T14:34:23.962Z,66.46
2017-01-29T14:35:34.258Z,65.98
2017-01-29T14:36:44.707Z,66.36
2017-01-29T14:37:55.391Z,66.46
2017-01-29T14:39:05.751Z,66.55
2017-01-29T14:40:18.287Z,66.46
2017-01-29T14:41:28.588Z,66.74
2017-01-29T14:42:38.908Z,66.64
2017-01-29T14:43:49.448Z,66.93
2017-01-29T14:45:00.010Z,67.02
2017-01-29T14:46:09.981Z,67.02
2017-01-29T14:47:19.536Z,67.02
2017-01-29T14:48:29.436Z,67.12
2017-01-29T14:49:40.079Z,66.93
2017-01-29T14:50:50.398Z,66.83
2017-01-29T14:52:00.687Z,67.02
2017-01-29T14:53:10.594Z,67.02
2017-01-29T14:54:20.906Z,67.02
2017-01-29T14:55:31.501Z,66.93
2017-01-29T14:56:41.873Z,66.83
2017-01-29T14:57:52.304Z,66.93
2017-01-29T14:59:02.707Z,66.83
2017-01-29T15:00:13.034Z,67.02
2017-01-29T15:01:23.211Z,66.93
2017-01-29T15:02:32.720Z,66.93
2017-01-29T15:03:43.019Z,67.02
2017-01-29T15:04:53.382Z,66.93
2017-01-29T15:06:03.822Z,66.83
2017-01-29T15:07:14.396Z,67.02